Time;durP1;ratioP1;P1;durP2;ratioP2;P2;SDS_P1;SDS_P2;PMS_P1;PMS_P2;Temp;Humidity;BMP_temperature;BMP_pressure;BME280_temperature;BME280_humidity;BME280_pressure;Samples;Min_cycle;Max_cycle;Signal;HPM_P1;HPM_P2
2023/01/27 00:02:04;;;;;;;21.13;10.23;;;2.90;65.20;;;;;;5073276;28;20025;-13
2023/01/27 00:04:30;;;;;;;20.63;10.25;;;2.90;65.80;;;;;;5072847;28;20056;-13
2023/01/27 00:06:56;;;;;;;18.90;9.27;;;2.90;65.10;;;;;;5072931;28;20074;-13
2023/01/27 00:09:22;;;;;;;24.10;8.93;;;2.90;65.00;;;;;;5073109;28;20024;-12
2023/01/27 00:14:32;;;;;;;27.77;12.40;;;3.00;65.10;;;;;;5072738;28;20451;-12
2023/01/27 00:16:58;;;;;;;26.42;13.00;;;3.00;65.10;;;;;;5072484;28;20021;-12
2023/01/27 00:19:25;;;;;;;24.45;10.95;;;2.90;65.10;;;;;;5072608;28;20504;-13
2023/01/27 00:24:36;;;;;;;23.27;10.45;;;3.00;65.20;;;;;;5073317;28;20055;-12
2023/01/27 00:27:09;;;;;;;20.25;8.57;;;2.90;65.30;;;;;;5072426;28;20493;-12
2023/01/27 00:29:36;;;;;;;21.25;9.60;;;2.90;65.20;;;;;;5072941;28;20050;-14
2023/01/27 00:34:46;;;;;;;22.13;9.95;;;3.00;65.40;;;;;;5072173;28;20058;-17
2023/01/27 00:37:13;;;;;;;21.92;10.88;;;3.00;65.50;;;;;;5072422;28;20107;-13
2023/01/27 00:39:39;;;;;;;28.45;12.45;;;2.90;65.30;;;;;;5072333;28;20070;-13
2023/01/27 00:42:05;;;;;;;27.38;12.25;;;2.90;65.30;;;;;;5072735;28;20032;-13
2023/01/27 00:44:31;;;;;;;25.45;10.75;;;2.90;65.40;;;;;;5072589;28;20028;-12
2023/01/27 00:46:57;;;;;;;20.25;10.70;;;2.90;65.50;;;;;;5072330;28;20020;-14
2023/01/27 00:49:23;;;;;;;18.88;9.02;;;2.90;65.30;;;;;;5072772;28;20530;-12
2023/01/27 00:51:49;;;;;;;21.48;10.00;;;2.90;65.40;;;;;;5072310;28;20035;-13
2023/01/27 00:54:16;;;;;;;21.45;11.00;;;2.90;65.40;;;;;;5072664;28;20024;-13
2023/01/27 00:56:42;;;;;;;26.50;11.77;;;2.90;65.40;;;;;;5072256;28;20111;-13
2023/01/27 00:59:08;;;;;;;25.55;11.38;;;2.90;65.60;;;;;;5071776;28;20094;-13
2023/01/27 01:01:34;;;;;;;20.20;8.57;;;2.90;65.40;;;;;;5072527;28;20048;-12
2023/01/27 01:04:00;;;;;;;22.50;11.02;;;2.90;65.40;;;;;;5072153;28;20469;-13
2023/01/27 01:06:26;;;;;;;20.00;10.52;;;2.90;65.40;;;;;;5072348;28;20028;-13
2023/01/27 01:08:53;;;;;;;19.73;8.57;;;3.00;65.20;;;;;;5071993;28;20021;-13
2023/01/27 01:11:20;;;;;;;17.33;7.93;;;3.00;65.20;;;;;;5072243;28;20044;-13
2023/01/27 01:13:46;;;;;;;19.52;9.88;;;3.00;65.20;;;;;;5072314;28;20079;-13
2023/01/27 01:16:15;;;;;;;16.17;8.10;;;3.00;65.40;;;;;;5072131;28;20021;-13
2023/01/27 01:18:42;;;;;;;16.42;8.20;;;3.00;65.50;;;;;;5072289;28;20062;-13
2023/01/27 01:21:08;;;;;;;19.60;9.00;;;3.00;65.80;;;;;;5072131;28;20039;-12
2023/01/27 01:23:38;;;;;;;22.17;9.70;;;3.10;65.90;;;;;;5072008;28;20020;-14
2023/01/27 01:26:04;;;;;;;20.40;9.27;;;3.00;65.90;;;;;;5071938;28;20037;-13
2023/01/27 01:28:30;;;;;;;16.35;7.78;;;3.00;65.80;;;;;;5074325;28;20016;-13
2023/01/27 01:31:02;;;;;;;20.95;9.35;;;3.00;65.90;;;;;;5075184;28;20469;-14
2023/01/27 01:33:28;;;;;;;16.80;8.10;;;3.00;65.80;;;;;;5076147;28;20436;-13
2023/01/27 01:35:53;;;;;;;14.43;7.07;;;3.00;65.90;;;;;;5075519;28;20052;-13
2023/01/27 01:38:19;;;;;;;14.70;6.72;;;3.00;65.80;;;;;;5075735;28;20025;-13
2023/01/27 01:40:45;;;;;;;17.55;8.25;;;2.90;65.80;;;;;;5075803;28;20024;-13
2023/01/27 01:43:16;;;;;;;19.10;8.82;;;2.90;66.20;;;;;;5075203;28;20033;-13
2023/01/27 01:45:49;;;;;;;16.70;9.05;;;2.90;66.40;;;;;;5075394;28;20429;-13
2023/01/27 01:48:27;;;;;;;21.55;9.82;;;2.90;66.60;;;;;;5075353;28;20052;-14
2023/01/27 01:51:01;;;;;;;19.55;9.18;;;2.90;66.60;;;;;;5075437;28;20064;-12
2023/01/27 01:53:34;;;;;;;13.88;6.80;;;2.90;66.70;;;;;;5075595;28;20025;-13
2023/01/27 01:56:05;;;;;;;15.15;7.63;;;2.90;66.60;;;;;;5075374;28;20052;-13
2023/01/27 01:58:32;;;;;;;14.13;7.03;;;2.90;66.50;;;;;;5075425;28;20124;-14
2023/01/27 02:00:58;;;;;;;13.88;7.03;;;2.90;66.60;;;;;;5074786;28;20055;-13
2023/01/27 02:03:25;;;;;;;16.75;7.75;;;2.90;66.80;;;;;;5075185;28;20029;-15
2023/01/27 02:05:53;;;;;;;16.33;7.70;;;2.90;66.90;;;;;;5075049;28;20032;-12
2023/01/27 02:08:22;;;;;;;24.23;9.65;;;2.90;66.70;;;;;;5075399;28;20055;-13
2023/01/27 02:10:49;;;;;;;17.17;8.05;;;2.90;67.00;;;;;;5075201;28;20042;-13
2023/01/27 02:13:15;;;;;;;18.90;8.77;;;2.90;66.90;;;;;;5075601;28;20433;-13
2023/01/27 02:15:41;;;;;;;20.00;9.18;;;2.80;67.40;;;;;;5075615;28;20033;-15
2023/01/27 02:18:07;;;;;;;16.92;8.38;;;2.80;67.40;;;;;;5074844;28;20472;-15
2023/01/27 02:20:41;;;;;;;20.58;9.25;;;2.80;67.40;;;;;;5074787;28;20044;-14
2023/01/27 02:23:26;;;;;;;25.13;10.48;;;2.80;67.50;;;;;;5074448;28;20491;-13
2023/01/27 02:26:19;;;;;;;21.52;9.57;;;2.70;67.50;;;;;;5075053;28;20036;-12
2023/01/27 02:28:55;;;;;;;22.67;10.68;;;2.70;67.50;;;;;;5074563;28;20044;-14
2023/01/27 02:31:20;;;;;;;25.08;11.70;;;2.70;67.70;;;;;;5074712;28;20039;-13
2023/01/27 02:33:46;;;;;;;26.83;13.18;;;2.60;67.60;;;;;;5074952;28;20012;-12
2023/01/27 02:36:15;;;;;;;25.75;11.65;;;2.60;67.50;;;;;;5074746;28;20053;-12
2023/01/27 02:38:52;;;;;;;23.50;10.10;;;2.60;67.60;;;;;;5074055;28;20040;-14
2023/01/27 02:41:56;;;;;;;22.83;11.40;;;2.50;67.70;;;;;;5073164;28;20021;-14
2023/01/27 02:44:22;;;;;;;24.17;11.50;;;2.50;67.80;;;;;;5072176;28;20576;-13
2023/01/27 02:46:48;;;;;;;21.85;10.75;;;2.60;67.80;;;;;;5074332;28;20028;-14
2023/01/27 02:49:14;;;;;;;24.73;11.40;;;2.60;68.00;;;;;;5074619;28;20032;-13
2023/01/27 02:51:39;;;;;;;20.73;9.40;;;2.50;68.00;;;;;;5074457;28;20039;-13
2023/01/27 02:54:05;;;;;;;19.33;9.32;;;2.50;68.10;;;;;;5074240;28;20027;-13
2023/01/27 02:56:32;;;;;;;20.00;10.30;;;2.60;68.40;;;;;;5074428;28;20025;-12
2023/01/27 02:58:57;;;;;;;23.67;11.45;;;2.60;68.40;;;;;;5073976;28;20032;-13
2023/01/27 03:01:24;;;;;;;26.02;11.82;;;2.60;68.30;;;;;;5074235;28;20046;-13
2023/01/27 03:03:50;;;;;;;22.58;10.75;;;2.50;68.40;;;;;;5073948;28;20037;-13
2023/01/27 03:06:17;;;;;;;25.83;11.63;;;2.50;68.30;;;;;;5075013;28;20036;-13
2023/01/27 03:08:43;;;;;;;21.05;10.35;;;2.50;68.60;;;;;;5074298;28;20036;-14
2023/01/27 03:11:09;;;;;;;25.23;10.38;;;2.50;68.80;;;;;;5073674;28;20044;-12
2023/01/27 03:13:36;;;;;;;17.30;8.68;;;2.50;68.90;;;;;;5073975;28;20510;-13
2023/01/27 03:18:49;;;;;;;22.15;10.30;;;2.50;69.00;;;;;;5073668;28;20040;-14
2023/01/27 03:21:16;;;;;;;18.40;8.90;;;2.60;69.30;;;;;;5073554;28;20024;-13
2023/01/27 03:23:44;;;;;;;20.38;9.32;;;2.60;69.40;;;;;;5074092;28;20028;-13
2023/01/27 03:26:10;;;;;;;23.50;10.40;;;2.60;69.60;;;;;;5073602;28;20099;-13
2023/01/27 03:28:36;;;;;;;22.90;9.57;;;2.50;69.80;;;;;;5073609;28;20016;-12
2023/01/27 03:31:07;;;;;;;24.63;10.68;;;2.60;69.60;;;;;;5073152;28;20039;-15
2023/01/27 03:33:34;;;;;;;16.08;7.93;;;2.50;69.70;;;;;;5073501;28;20039;-15
2023/01/27 03:46:58;;;;;;;20.40;9.45;;;2.20;70.40;;;;;;5073328;28;20044;-13
2023/01/27 03:49:24;;;;;;;21.80;9.73;;;2.10;70.60;;;;;;5073113;28;20024;-14
2023/01/27 03:51:50;;;;;;;21.92;9.80;;;2.10;70.60;;;;;;5072436;28;20036;-14
2023/01/27 03:54:16;;;;;;;21.15;9.88;;;2.00;70.80;;;;;;5073587;28;20028;-13
2023/01/27 03:56:42;;;;;;;21.10;9.23;;;1.90;71.00;;;;;;5073135;28;20070;-14
2023/01/27 03:59:08;;;;;;;19.38;9.43;;;1.90;70.90;;;;;;5072850;28;20119;-13
2023/01/27 04:01:34;;;;;;;17.15;8.38;;;1.90;71.10;;;;;;5073076;28;20074;-14
2023/01/27 04:07:01;;;;;;;19.20;8.85;;;1.80;71.00;;;;;;5073235;28;20515;-12
2023/01/27 04:09:34;;;;;;;23.10;10.35;;;1.90;71.70;;;;;;5072892;28;20480;-14
2023/01/27 04:12:04;;;;;;;21.40;11.18;;;1.90;71.70;;;;;;5073117;28;20034;-13
2023/01/27 04:14:38;;;;;;;24.85;11.40;;;1.80;71.80;;;;;;5072751;28;20032;-13
2023/01/27 04:17:07;;;;;;;19.73;9.20;;;1.80;71.30;;;;;;5072491;28;20369;-12
2023/01/27 04:19:33;;;;;;;23.88;10.95;;;1.80;71.70;;;;;;5072616;28;20128;-13
2023/01/27 04:22:00;;;;;;;27.05;11.85;;;1.70;71.90;;;;;;5072993;28;20150;-14
2023/01/27 04:24:26;;;;;;;25.58;11.95;;;1.70;71.70;;;;;;5073210;28;20029;-14
2023/01/27 04:26:58;;;;;;;27.48;11.60;;;1.60;71.70;;;;;;5072562;28;20111;-13
2023/01/27 04:29:26;;;;;;;27.35;13.00;;;1.60;71.60;;;;;;5072834;28;20124;-12
2023/01/27 04:31:53;;;;;;;25.17;11.93;;;1.50;71.90;;;;;;5072567;28;20105;-14
2023/01/27 04:34:19;;;;;;;24.20;11.45;;;1.50;72.00;;;;;;5072223;28;20029;-13
2023/01/27 04:36:46;;;;;;;24.92;11.55;;;1.40;72.20;;;;;;5072703;28;20028;-13
2023/01/27 04:39:13;;;;;;;27.88;12.27;;;1.40;72.20;;;;;;5072474;28;20028;-13
2023/01/27 04:41:39;;;;;;;22.63;10.43;;;1.30;72.40;;;;;;5072583;28;20540;-14
2023/01/27 04:44:05;;;;;;;26.83;11.50;;;1.30;72.30;;;;;;5072456;28;20063;-13
2023/01/27 04:46:32;;;;;;;24.83;11.77;;;1.20;72.40;;;;;;5072377;28;20108;-12
2023/01/27 04:48:58;;;;;;;23.92;10.45;;;1.20;72.60;;;;;;5072532;28;20098;-13
2023/01/27 04:51:24;;;;;;;22.88;10.45;;;1.10;72.90;;;;;;5072547;28;20037;-13
2023/01/27 04:53:50;;;;;;;27.55;12.88;;;1.10;72.90;;;;;;5072458;28;20032;-13
2023/01/27 04:56:31;;;;;;;23.60;11.32;;;1.20;72.90;;;;;;5072533;28;20028;-13
2023/01/27 04:58:59;;;;;;;24.45;12.18;;;1.10;72.80;;;;;;5072016;28;20041;-14
2023/01/27 05:01:25;;;;;;;25.60;12.43;;;1.10;72.90;;;;;;5073338;28;20048;-13
2023/01/27 05:03:51;;;;;;;26.05;11.93;;;1.10;73.00;;;;;;5076752;28;20024;-12
2023/01/27 05:06:17;;;;;;;23.40;11.38;;;1.10;72.90;;;;;;5076521;28;20102;-13
2023/01/27 05:08:43;;;;;;;27.75;11.82;;;1.10;72.80;;;;;;5076421;28;20092;-13
2023/01/27 05:11:10;;;;;;;27.70;12.13;;;1.10;72.70;;;;;;5076133;28;20036;-12
2023/01/27 05:13:36;;;;;;;24.75;12.00;;;1.10;72.80;;;;;;5076374;28;20103;-13
2023/01/27 05:16:06;;;;;;;26.77;11.52;;;1.20;72.70;;;;;;5076429;28;20028;-13
2023/01/27 05:18:32;;;;;;;28.35;12.13;;;1.10;72.50;;;;;;5074757;28;20048;-14
2023/01/27 05:21:00;;;;;;;26.05;11.95;;;1.20;72.50;;;;;;5075852;28;20051;-14
2023/01/27 05:23:35;;;;;;;24.35;11.13;;;1.10;72.60;;;;;;5075877;28;20032;-13
2023/01/27 05:26:14;;;;;;;26.25;10.48;;;1.10;72.50;;;;;;5075998;28;20017;-13
2023/01/27 05:28:45;;;;;;;24.48;10.52;;;1.20;72.30;;;;;;5074549;28;20020;-13
2023/01/27 05:31:13;;;;;;;23.48;10.95;;;1.10;72.30;;;;;;5075552;28;20063;-14
2023/01/27 05:33:41;;;;;;;23.70;10.27;;;1.20;72.20;;;;;;5075784;28;20103;-14
2023/01/27 05:36:08;;;;;;;19.98;8.80;;;1.20;72.00;;;;;;5075791;28;20045;-13
2023/01/27 05:38:34;;;;;;;17.40;7.90;;;1.10;72.10;;;;;;5075841;28;20032;-14
2023/01/27 05:41:03;;;;;;;20.55;9.88;;;1.20;72.10;;;;;;5075281;28;20048;-14
2023/01/27 05:43:30;;;;;;;26.17;10.07;;;1.20;72.00;;;;;;5075986;28;20029;-14
2023/01/27 05:46:12;;;;;;;20.25;9.00;;;1.20;71.90;;;;;;5074316;28;20456;-13
2023/01/27 05:48:40;;;;;;;24.33;10.05;;;1.10;71.70;;;;;;5075699;28;20031;-13
2023/01/27 05:51:07;;;;;;;26.33;11.02;;;1.10;71.90;;;;;;5075591;28;20090;-13
2023/01/27 05:53:33;;;;;;;21.80;9.55;;;1.00;71.80;;;;;;5075434;28;20036;-15
2023/01/27 05:56:00;;;;;;;23.17;9.65;;;1.00;71.80;;;;;;5075406;28;20020;-13
2023/01/27 05:58:26;;;;;;;20.90;8.77;;;0.90;72.00;;;;;;5075580;28;20096;-14
2023/01/27 06:00:53;;;;;;;23.02;10.23;;;0.90;72.10;;;;;;5075010;28;20099;-13
2023/01/27 06:03:19;;;;;;;22.42;8.88;;;0.90;72.20;;;;;;5075569;28;20024;-14
2023/01/27 06:05:54;;;;;;;31.45;11.30;;;0.90;72.20;;;;;;5075373;28;20021;-14
2023/01/27 06:08:25;;;;;;;16.38;7.85;;;0.80;72.30;;;;;;5075535;28;20017;-13
2023/01/27 06:10:52;;;;;;;14.93;7.43;;;0.80;72.20;;;;;;5075837;28;20082;-15
2023/01/27 06:13:22;;;;;;;17.98;8.52;;;0.80;72.10;;;;;;5074478;28;20028;-14
2023/01/27 06:15:49;;;;;;;17.33;8.35;;;0.80;72.30;;;;;;5075318;28;20025;-13
2023/01/27 06:18:16;;;;;;;23.23;10.60;;;0.80;72.50;;;;;;5075283;28;20051;-14
2023/01/27 06:20:43;;;;;;;23.83;9.68;;;0.80;72.70;;;;;;5075247;28;20033;-13
2023/01/27 06:23:11;;;;;;;25.92;11.15;;;0.80;72.90;;;;;;5074909;28;20460;-13
2023/01/27 06:25:43;;;;;;;25.02;12.02;;;0.70;73.00;;;;;;5075086;28;20032;-13
2023/01/27 06:28:09;;;;;;;26.73;10.70;;;0.70;72.90;;;;;;5075111;28;20028;-14
2023/01/27 06:30:37;;;;;;;28.55;12.48;;;0.60;72.90;;;;;;5075030;28;20021;-13
2023/01/27 06:33:03;;;;;;;29.00;12.98;;;0.60;72.80;;;;;;5074837;28;20056;-13
2023/01/27 06:35:30;;;;;;;27.27;11.85;;;0.50;72.90;;;;;;5074644;28;20048;-12
2023/01/27 06:38:00;;;;;;;27.23;11.63;;;0.50;73.00;;;;;;5074800;28;20081;-13
2023/01/27 06:40:28;;;;;;;27.42;13.02;;;0.40;72.90;;;;;;5074583;28;20032;-14
2023/01/27 06:42:54;;;;;;;37.50;14.50;;;0.40;73.10;;;;;;5073150;28;20025;-13
2023/01/27 06:45:20;;;;;;;39.17;14.48;;;0.30;73.10;;;;;;5075028;28;20031;-14
2023/01/27 06:47:57;;;;;;;36.35;15.23;;;0.20;73.10;;;;;;5073252;28;20028;-15
2023/01/27 06:50:24;;;;;;;32.13;13.55;;;0.20;73.10;;;;;;5074815;28;20125;-14
2023/01/27 06:52:51;;;;;;;38.08;15.48;;;0.20;73.40;;;;;;5074265;28;20028;-13
2023/01/27 06:55:20;;;;;;;30.52;13.70;;;0.10;73.40;;;;;;5074278;28;20388;-13
2023/01/27 06:57:49;;;;;;;33.08;14.43;;;0.10;73.50;;;;;;5074435;28;20029;-14
2023/01/27 07:00:15;;;;;;;39.08;14.38;;;0.10;73.60;;;;;;5074225;28;20028;-12
2023/01/27 07:02:42;;;;;;;31.50;13.30;;;0.10;73.70;;;;;;5074024;28;20028;-13
2023/01/27 07:05:09;;;;;;;28.15;12.35;;;0.20;73.70;;;;;;5074829;28;20032;-13
2023/01/27 07:07:35;;;;;;;24.83;11.88;;;0.30;73.70;;;;;;5074530;28;20032;-14
2023/01/27 07:10:01;;;;;;;25.63;11.60;;;0.30;73.60;;;;;;5074090;28;20060;-14
2023/01/27 07:12:27;;;;;;;29.65;13.25;;;0.40;73.50;;;;;;5074010;28;20413;-13
2023/01/27 07:14:53;;;;;;;31.65;12.88;;;0.60;73.50;;;;;;5073889;28;20024;-13
2023/01/27 07:17:19;;;;;;;28.17;12.75;;;0.70;73.50;;;;;;5073879;28;20058;-14
2023/01/27 07:19:45;;;;;;;27.70;12.35;;;0.90;73.30;;;;;;5073617;28;20430;-14
2023/01/27 07:22:11;;;;;;;27.75;12.65;;;1.10;73.20;;;;;;5073635;28;20028;-14
2023/01/27 07:24:37;;;;;;;31.00;16.63;;;1.30;72.90;;;;;;5073533;28;20062;-13
2023/01/27 07:27:03;;;;;;;27.80;15.45;;;1.40;72.70;;;;;;5073010;28;20029;-14
2023/01/27 07:29:29;;;;;;;34.03;17.42;;;1.50;72.50;;;;;;5073522;28;20380;-14
2023/01/27 07:31:55;;;;;;;22.58;10.48;;;1.60;72.20;;;;;;5073914;28;20103;-13
2023/01/27 07:34:21;;;;;;;23.15;10.57;;;1.60;72.10;;;;;;5073587;28;20487;-14
2023/01/27 07:36:47;;;;;;;20.45;10.45;;;1.60;71.80;;;;;;5073225;28;20480;-15
2023/01/27 07:39:12;;;;;;;27.52;14.18;;;1.70;71.70;;;;;;5073917;28;20032;-15
2023/01/27 07:41:38;;;;;;;27.77;13.82;;;1.70;71.50;;;;;;5073391;28;20028;-14
2023/01/27 07:44:04;;;;;;;26.92;14.63;;;1.70;71.50;;;;;;5073358;28;20066;-14
2023/01/27 07:46:30;;;;;;;26.42;12.25;;;1.80;71.40;;;;;;5073400;28;20067;-13
2023/01/27 07:48:56;;;;;;;23.23;11.38;;;1.90;71.30;;;;;;5073203;28;20025;-14
2023/01/27 07:51:22;;;;;;;28.13;11.82;;;2.00;71.10;;;;;;5073240;28;20035;-14
2023/01/27 07:53:49;;;;;;;22.30;10.75;;;2.00;70.80;;;;;;5073378;28;20029;-14
2023/01/27 07:56:15;;;;;;;21.50;10.70;;;2.10;70.80;;;;;;5073380;28;20033;-13
2023/01/27 07:58:41;;;;;;;22.23;10.88;;;2.10;70.60;;;;;;5073276;28;20024;-13
2023/01/27 08:01:09;;;;;;;24.35;11.23;;;2.20;70.70;;;;;;5073267;28;20357;-13
2023/01/27 08:03:36;;;;;;;29.52;14.15;;;2.30;70.60;;;;;;5073111;28;20025;-15
2023/01/27 08:06:09;;;;;;;45.67;19.35;;;2.40;70.40;;;;;;5072993;28;20031;-14
2023/01/27 08:08:35;;;;;;;28.80;13.50;;;2.40;70.00;;;;;;5071675;28;20081;-14
2023/01/27 08:11:04;;;;;;;26.52;12.50;;;2.50;70.00;;;;;;5072837;28;20028;-13
2023/01/27 08:13:30;;;;;;;24.17;12.00;;;2.70;69.70;;;;;;5072775;28;20477;-13
2023/01/27 08:15:58;;;;;;;20.67;9.52;;;2.80;69.40;;;;;;5072641;28;20022;-14
2023/01/27 08:18:25;;;;;;;22.13;9.40;;;3.00;69.30;;;;;;5071293;28;20043;-14
2023/01/27 08:20:53;;;;;;;18.05;9.32;;;3.10;69.00;;;;;;5072796;28;20040;-14
2023/01/27 08:23:21;;;;;;;28.40;12.48;;;3.30;68.70;;;;;;5072882;28;20059;-14
2023/01/27 08:25:55;;;;;;;20.15;9.48;;;3.40;68.40;;;;;;5072896;28;20031;-14
2023/01/27 08:28:21;;;;;;;;;;;3.60;67.00;;;;;;5073240;28;20036;-14
2023/01/27 08:30:49;;;;;;;19.02;8.52;;;3.70;67.10;;;;;;5072409;28;20380;-14
2023/01/27 08:33:15;;;;;;;23.77;10.50;;;3.80;66.60;;;;;;5072461;28;20039;-14
2023/01/27 08:35:43;;;;;;;18.15;7.88;;;3.90;66.50;;;;;;5072320;28;20048;-14
2023/01/27 08:38:13;;;;;;;18.23;8.63;;;4.10;66.20;;;;;;5072419;28;20128;-15
2023/01/27 08:40:40;;;;;;;16.67;7.85;;;4.30;64.10;;;;;;5072410;28;20481;-14
2023/01/27 08:43:06;;;;;;;19.83;8.50;;;4.40;63.70;;;;;;5072564;28;20492;-14
2023/01/27 08:45:33;;;;;;;16.63;7.65;;;4.50;64.10;;;;;;5072663;28;20028;-14
2023/01/27 08:47:59;;;;;;;17.85;7.97;;;4.60;62.90;;;;;;5072282;28;20025;-14
2023/01/27 08:50:26;;;;;;;18.60;7.93;;;4.70;61.00;;;;;;5072625;28;20024;-15
2023/01/27 08:52:52;;;;;;;15.43;7.38;;;4.80;61.10;;;;;;5072365;28;20029;-14
2023/01/27 08:55:18;;;;;;;17.77;7.97;;;4.90;60.50;;;;;;5072765;28;20093;-14
2023/01/27 08:57:44;;;;;;;17.02;8.65;;;5.00;61.50;;;;;;5072354;28;20043;-14
2023/01/27 09:00:11;;;;;;;14.70;6.53;;;5.20;58.90;;;;;;5072062;28;20603;-13
2023/01/27 09:02:37;;;;;;;14.32;7.32;;;5.40;57.10;;;;;;5072278;28;20330;-15
2023/01/27 09:05:03;;;;;;;14.60;7.10;;;5.50;58.60;;;;;;5071900;28;20029;-14
2023/01/27 09:07:29;;;;;;;13.30;6.53;;;5.70;59.30;;;;;;5072733;28;20028;-14
2023/01/27 09:09:55;;;;;;;14.52;7.03;;;5.80;58.00;;;;;;5072159;28;20013;-15
2023/01/27 09:12:21;;;;;;;12.63;6.07;;;5.90;55.30;;;;;;5072332;28;20017;-14
2023/01/27 09:14:47;;;;;;;11.65;5.63;;;6.10;55.40;;;;;;5071818;28;20028;-14
2023/01/27 09:17:18;;;;;;;12.10;6.55;;;6.30;54.20;;;;;;5072085;28;20024;-14
2023/01/27 09:19:45;;;;;;;11.35;5.28;;;6.40;53.90;;;;;;5072112;28;20349;-14
2023/01/27 09:22:11;;;;;;;12.85;5.95;;;6.60;54.40;;;;;;5072066;28;20067;-14
2023/01/27 09:24:37;;;;;;;12.30;6.38;;;6.80;53.60;;;;;;5071993;28;20048;-13
2023/01/27 09:27:03;;;;;;;11.38;5.45;;;6.90;51.30;;;;;;5071815;28;20031;-13
2023/01/27 09:29:35;;;;;;;13.77;6.50;;;7.00;52.50;;;;;;5071817;28;20199;-14
2023/01/27 09:32:02;;;;;;;11.02;5.20;;;7.20;52.00;;;;;;5072010;28;20066;-14
2023/01/27 09:34:28;;;;;;;12.80;5.80;;;7.30;50.90;;;;;;5072117;28;20056;-13
2023/01/27 09:37:05;;;;;;;12.07;5.35;;;7.30;50.90;;;;;;5071737;28;20476;-14
2023/01/27 09:39:34;;;;;;;13.48;6.05;;;7.30;49.80;;;;;;5072675;28;20090;-14
2023/01/27 09:42:09;;;;;;;15.07;6.47;;;7.30;50.20;;;;;;5072262;28;20028;-14
2023/01/27 09:45:03;;;;;;;13.73;6.18;;;7.30;48.20;;;;;;5072174;28;20384;-14
2023/01/27 09:47:35;;;;;;;12.82;6.40;;;7.40;48.80;;;;;;5072534;28;20033;-14
2023/01/27 09:50:09;;;;;;;10.00;5.30;;;7.60;49.40;;;;;;5074978;28;20064;-14
2023/01/27 09:53:13;;;;;;;12.55;5.57;;;7.70;47.80;;;;;;5075827;28;20033;-14
2023/01/27 09:55:50;;;;;;;10.45;5.13;;;7.60;48.30;;;;;;5075526;28;20033;-14
2023/01/27 09:58:53;;;;;;;12.30;6.43;;;7.60;49.80;;;;;;5075566;28;20029;-14
2023/01/27 10:01:44;;;;;;;11.23;6.03;;;7.60;48.50;;;;;;5075613;28;20060;-14
2023/01/27 10:04:16;;;;;;;13.07;5.50;;;7.70;48.90;;;;;;5075348;28;20039;-12
2023/01/27 10:07:06;;;;;;;9.75;5.50;;;7.80;46.80;;;;;;5075239;28;20024;-13
2023/01/27 10:09:50;;;;;;;10.95;5.07;;;8.00;48.10;;;;;;5075383;28;20032;-11
2023/01/27 10:12:26;;;;;;;;;;;8.20;45.90;;;;;;5075789;28;20089;-13
2023/01/27 10:15:01;;;;;;;10.57;5.30;;;8.20;46.80;;;;;;5074923;28;19909;-14
2023/01/27 10:17:54;;;;;;;12.57;5.45;;;8.40;45.30;;;;;;5074795;28;20069;-13
2023/01/27 10:20:38;;;;;;;10.88;4.93;;;8.60;45.80;;;;;;5075188;28;20059;-14
2023/01/27 10:23:39;;;;;;;10.48;4.97;;;8.80;45.60;;;;;;5074921;28;20028;-14
2023/01/27 10:26:26;;;;;;;9.80;4.82;;;8.90;43.50;;;;;;5065730;28;20535;-13
2023/01/27 10:29:15;;;;;;;10.15;5.03;;;9.30;44.20;;;;;;5074531;28;20029;-14
2023/01/27 10:31:55;;;;;;;11.02;5.60;;;9.40;44.30;;;;;;5053206;28;20115;-14
2023/01/27 10:34:27;;;;;;;9.02;4.80;;;9.70;42.80;;;;;;5075127;28;20043;-13
2023/01/27 10:36:57;;;;;;;9.52;4.63;;;9.70;42.30;;;;;;5074338;28;20043;-14
2023/01/27 10:39:50;;;;;;;9.50;5.13;;;9.70;42.20;;;;;;5073555;28;20115;-13
2023/01/27 10:42:16;;;;;;;11.07;5.15;;;9.90;42.00;;;;;;5074917;28;20082;-13
2023/01/27 10:44:48;;;;;;;8.98;4.80;;;9.70;41.40;;;;;;5074759;28;20437;-14
2023/01/27 10:47:41;;;;;;;10.90;5.30;;;9.60;42.90;;;;;;5074832;28;20024;-12
2023/01/27 10:50:22;;;;;;;10.02;4.68;;;9.60;42.10;;;;;;5074644;28;20035;-12
2023/01/27 10:52:51;;;;;;;8.90;4.10;;;9.30;43.70;;;;;;5074233;28;20020;-14
2023/01/27 10:55:28;;;;;;;9.13;5.00;;;9.40;43.30;;;;;;5074409;28;20056;-13
2023/01/27 10:58:00;;;;;;;10.13;4.88;;;9.50;41.90;;;;;;5074458;28;20481;-13
2023/01/27 11:00:39;;;;;;;10.50;5.07;;;9.90;40.50;;;;;;5073826;28;20036;-12
2023/01/27 11:03:22;;;;;;;8.27;4.40;;;9.70;40.90;;;;;;5073889;28;20052;-15
2023/01/27 11:05:57;;;;;;;10.10;5.03;;;9.70;41.90;;;;;;5073980;28;20119;-14
2023/01/27 11:08:31;;;;;;;11.63;4.90;;;9.60;42.00;;;;;;5073992;28;20021;-14
2023/01/27 11:13:48;;;;;;;8.60;4.35;;;9.80;42.00;;;;;;5074464;28;20040;-14
2023/01/27 11:16:17;;;;;;;8.02;4.60;;;9.70;41.40;;;;;;5074026;28;20089;-14
2023/01/27 11:18:45;;;;;;;9.02;4.47;;;9.60;41.50;;;;;;5073935;28;20025;-13
2023/01/27 11:21:18;;;;;;;10.93;4.80;;;9.50;41.70;;;;;;5073335;28;20035;-14
2023/01/27 11:23:52;;;;;;;9.15;4.82;;;9.70;42.10;;;;;;5074008;28;20059;-13
2023/01/27 11:26:54;;;;;;;9.70;5.10;;;9.80;41.50;;;;;;5074017;28;20021;-14
2023/01/27 11:29:32;;;;;;;8.23;4.35;;;10.00;42.20;;;;;;5073590;28;20158;-14
2023/01/27 11:32:26;;;;;;;9.15;4.95;;;10.40;41.10;;;;;;5073839;28;20109;-13
2023/01/27 11:35:13;;;;;;;9.55;5.07;;;10.70;41.60;;;;;;5073082;28;20530;-12
2023/01/27 11:37:45;;;;;;;9.80;5.25;;;11.00;40.50;;;;;;5073640;28;20025;-13
2023/01/27 11:40:29;;;;;;;10.00;4.90;;;11.00;39.40;;;;;;5073578;28;20025;-13
2023/01/27 11:42:57;;;;;;;8.98;4.53;;;11.10;39.70;;;;;;5073183;28;20104;-14
2023/01/27 11:45:23;;;;;;;8.93;4.28;;;11.20;39.10;;;;;;5073116;28;20028;-13
2023/01/27 11:47:59;;;;;;;9.90;4.95;;;11.40;40.30;;;;;;5073126;28;20074;-14
2023/01/27 11:50:33;;;;;;;8.88;4.68;;;11.80;39.70;;;;;;5073748;28;20056;-13
2023/01/27 11:53:25;;;;;;;11.90;5.70;;;12.10;39.00;;;;;;5072887;28;20055;-13
2023/01/27 11:56:02;;;;;;;12.05;5.60;;;12.20;38.60;;;;;;5073450;28;20035;-13
2023/01/27 11:58:38;;;;;;;9.73;4.47;;;12.00;37.40;;;;;;5073006;28;20039;-13
2023/01/27 12:01:22;;;;;;;8.75;4.90;;;12.10;38.10;;;;;;5072995;28;20032;-12
2023/01/27 12:04:24;;;;;;;10.05;5.18;;;12.00;36.80;;;;;;5073230;28;20020;-14
2023/01/27 12:07:00;;;;;;;9.75;5.30;;;12.20;36.00;;;;;;5031122;28;20137;-12
2023/01/27 12:09:38;;;;;;;13.82;6.80;;;12.20;37.90;;;;;;5031457;28;20552;-13
2023/01/27 12:12:12;;;;;;;9.48;4.78;;;12.10;37.60;;;;;;5030651;28;20041;-15
2023/01/27 12:14:46;;;;;;;9.10;4.60;;;12.00;37.20;;;;;;5030604;28;20029;-13
2023/01/27 12:17:29;;;;;;;10.57;4.78;;;11.90;37.80;;;;;;5031235;28;20038;-15
2023/01/27 12:20:02;;;;;;;10.27;5.13;;;12.00;39.10;;;;;;5030594;28;20557;-14
2023/01/27 12:22:47;;;;;;;9.60;5.40;;;12.40;38.60;;;;;;5030699;28;20025;-14
2023/01/27 12:25:28;;;;;;;9.75;4.97;;;12.50;37.60;;;;;;5030562;28;20060;-14
2023/01/27 12:28:03;;;;;;;10.23;5.75;;;12.40;38.60;;;;;;5030614;28;20025;-13
2023/01/27 12:30:36;;;;;;;8.93;4.85;;;12.40;37.60;;;;;;5030362;28;20044;-13
2023/01/27 12:33:16;;;;;;;10.73;5.80;;;12.50;38.70;;;;;;5030213;28;20049;-13
2023/01/27 12:35:48;;;;;;;9.70;5.32;;;12.80;37.60;;;;;;5030205;28;20045;-13
2023/01/27 12:38:19;;;;;;;8.50;4.90;;;12.90;38.60;;;;;;5030466;28;20088;-13
2023/01/27 12:40:47;;;;;;;10.77;5.85;;;13.00;38.40;;;;;;5030327;28;20410;-13
2023/01/27 12:43:19;;;;;;;8.77;4.90;;;13.20;36.90;;;;;;5067003;28;20047;-13
2023/01/27 12:46:15;;;;;;;8.95;5.32;;;13.40;37.50;;;;;;5072225;28;20492;-14
2023/01/27 12:49:08;;;;;;;8.43;4.50;;;13.40;36.10;;;;;;5072392;28;20063;-13
2023/01/27 12:51:47;;;;;;;9.38;4.97;;;13.40;36.30;;;;;;5068127;28;20136;-14
2023/01/27 12:54:26;;;;;;;11.45;5.57;;;13.40;37.10;;;;;;5072265;28;20032;-15
2023/01/27 12:56:55;;;;;;;9.18;4.93;;;13.40;36.10;;;;;;5072207;28;20031;-14
2023/01/27 12:59:24;;;;;;;9.38;5.35;;;13.70;35.10;;;;;;5072609;28;20036;-15
2023/01/27 13:02:18;;;;;;;9.55;4.97;;;14.00;35.10;;;;;;5072140;28;20029;-13
2023/01/27 13:04:59;;;;;;;8.93;4.82;;;14.40;34.20;;;;;;5072527;28;20031;-14
2023/01/27 13:07:33;;;;;;;9.88;5.28;;;14.60;34.30;;;;;;5072138;28;20036;-14
2023/01/27 13:10:02;;;;;;;10.40;4.75;;;14.90;34.50;;;;;;5072693;28;20150;-14
2023/01/27 13:12:30;;;;;;;9.57;4.88;;;15.20;34.50;;;;;;5072071;28;20039;-14
2023/01/27 13:15:16;;;;;;;10.05;5.25;;;15.10;33.50;;;;;;5072004;28;20029;-14
2023/01/27 13:17:50;;;;;;;9.15;5.30;;;14.90;33.90;;;;;;5072452;28;20040;-15
2023/01/27 13:20:32;;;;;;;9.95;5.40;;;14.50;34.50;;;;;;5070822;28;20373;-14
2023/01/27 13:23:30;;;;;;;10.60;5.15;;;13.80;35.50;;;;;;5072158;28;20025;-14
2023/01/27 13:26:11;;;;;;;9.02;5.50;;;13.00;33.80;;;;;;5076289;28;20021;-15
2023/01/27 13:29:03;;;;;;;8.13;4.75;;;12.30;34.90;;;;;;5075895;28;20115;-14
2023/01/27 13:31:53;;;;;;;8.77;4.97;;;12.10;36.20;;;;;;5074326;28;20365;-14